.
WxDataArchive / Data Records for 2006-06-17
2006-06-16 June 2006 2006-06-18

Data Records for Saturday, 17 June 2006

Time	Temp	Chill	HIndex	Humid	Dewpt	 Wind 	HiWind	WindDir	Rain 	Barom 
-----	----	-----	------	-----	-----	------	------	-------	-----	----- 
00:00	74.0	74.0	74.0	60	59.2	0	2	270	0.00	30.013 
00:05	73.9	73.9	73.9	59	58.7	0	1	270	0.00	30.013 
00:10	73.5	73.5	73.5	61	59.2	0	1	270	0.00	30.013 
00:15	73.2	73.2	73.2	62	59.4	0	1	270	0.00	30.018 
00:20	73.0	73.0	73.0	61	58.7	0	1	270	0.00	30.018 
00:25	73.0	73.0	73.0	62	59.2	0	2	270	0.00	30.018 
00:30	72.8	72.8	72.8	62	59.0	0	1	270	0.00	30.025 
00:35	72.7	72.7	72.7	62	58.9	0	1	270	0.00	30.025 
00:40	72.5	72.5	72.5	62	58.7	0	0	---	0.00	30.025 
00:45	72.3	72.3	72.3	62	58.5	0	1	270	0.00	30.027 
00:50	72.3	72.3	72.3	62	58.5	0	2	270	0.00	30.027 
00:55	72.1	72.1	72.1	63	58.8	0	1	270	0.00	30.027 
01:00	71.8	71.8	71.8	63	58.5	0	1	270	0.00	30.028 
01:05	71.6	71.6	71.6	64	58.8	0	0	---	0.00	30.028 
01:10	71.3	71.3	71.3	64	58.5	0	0	---	0.00	30.028 
01:15	71.1	71.1	71.1	64	58.3	0	0	---	0.00	30.029 
01:20	70.9	70.9	70.9	65	58.5	0	0	---	0.00	30.029 
01:25	70.8	70.8	70.8	65	58.4	0	1	270	0.00	30.029 
01:30	70.6	70.6	70.6	65	58.2	0	0	---	0.00	30.028 
01:35	70.4	70.4	70.4	65	58.1	0	0	---	0.00	30.028 
01:40	70.4	70.4	70.4	65	58.1	0	1	270	0.00	30.028 
01:45	70.4	70.4	70.4	66	58.5	0	1	270	0.00	30.028 
01:50	70.4	70.4	70.4	66	58.5	0	0	---	0.00	30.028 
01:55	70.3	70.3	70.3	66	58.4	0	0	---	0.00	30.028 
02:00	70.1	70.1	70.1	66	58.2	0	0	---	0.00	30.028 
02:05	69.9	69.9	69.9	67	58.4	0	0	---	0.00	30.028 
02:10	69.8	69.8	69.8	67	58.3	0	0	---	0.00	30.028 
02:15	69.6	69.6	69.6	67	58.1	0	1	270	0.00	30.025 
02:20	69.6	69.6	69.6	67	58.1	0	0	---	0.00	30.025 
02:25	69.4	69.4	69.4	68	58.4	0	0	---	0.00	30.025 
02:30	69.3	69.3	69.3	68	58.3	0	0	---	0.00	30.026 
02:35	68.9	68.9	68.9	69	58.3	0	0	---	0.00	30.026 
02:40	68.8	68.8	68.8	69	58.2	0	0	---	0.00	30.026 
02:45	68.8	68.8	68.8	69	58.2	0	0	---	0.00	30.022 
02:50	68.6	68.6	68.6	70	58.4	0	0	---	0.00	30.022 
02:55	68.3	68.3	68.3	71	58.5	0	0	---	0.00	30.022 
03:00	67.8	67.8	67.8	71	58.0	0	0	---	0.00	30.020 
03:05	67.6	67.6	67.6	72	58.2	0	0	---	0.00	30.020 
03:10	67.3	67.3	67.3	72	58.0	0	0	---	0.00	30.020 
03:15	66.9	66.9	66.9	73	58.0	0	0	---	0.00	30.012 
03:20	66.4	66.4	66.4	75	58.2	0	0	---	0.00	30.012 
03:25	66.1	66.1	66.1	75	57.9	0	0	---	0.00	30.012 
03:30	65.8	65.8	65.8	77	58.4	0	0	---	0.00	30.010 
03:35	65.5	65.5	65.5	77	58.1	0	0	---	0.00	30.010 
03:40	65.3	65.3	65.3	78	58.3	0	0	---	0.00	30.010 
03:45	65.0	65.0	65.0	78	58.0	0	0	---	0.00	30.002 
03:50	65.2	65.2	65.2	78	58.2	0	0	---	0.00	30.002 
03:55	65.2	65.2	65.2	78	58.2	0	0	---	0.00	30.002 
04:00	65.2	65.2	65.2	78	58.2	0	0	---	0.00	30.009 
04:05	65.2	65.2	65.2	78	58.2	0	1	270	0.00	30.009 
04:10	65.2	65.2	65.2	78	58.2	0	0	---	0.00	30.009 
04:15	65.0	65.0	65.0	78	58.0	0	0	---	0.00	30.005 
04:20	65.0	65.0	65.0	78	58.0	0	0	---	0.00	30.005 
04:25	64.8	64.8	64.8	78	57.8	0	0	---	0.00	30.005 
04:30	64.5	64.5	64.5	79	57.8	0	0	---	0.00	30.003 
04:35	64.2	64.2	64.2	80	57.9	0	0	---	0.00	30.003 
04:40	63.9	63.9	63.9	81	57.9	0	0	---	0.00	30.003 
04:45	63.7	63.7	63.7	81	57.8	0	0	---	0.00	30.005 
04:50	63.4	63.4	63.4	82	57.8	0	0	---	0.00	30.005 
04:55	63.2	63.2	63.2	82	57.6	0	0	---	0.00	30.005 
05:00	63.1	63.1	63.1	83	57.8	0	0	---	0.00	30.009 
05:05	62.7	62.7	62.7	83	57.5	0	0	---	0.00	30.009 
05:10	62.6	62.6	62.6	84	57.7	0	0	---	0.00	30.009 
05:15	62.3	62.3	62.3	84	57.4	0	0	---	0.00	30.010 
05:20	62.0	62.0	62.0	85	57.4	0	0	---	0.00	30.010 
05:25	61.8	61.8	61.8	85	57.2	0	0	---	0.00	30.010 
05:30	61.6	61.6	61.6	85	57.0	0	0	---	0.00	30.012 
05:35	61.5	61.5	61.5	86	57.3	0	0	---	0.00	30.012 
05:40	61.5	61.5	61.5	86	57.3	0	0	---	0.00	30.012 
05:45	61.3	61.3	61.3	87	57.4	0	0	---	0.00	30.010 
05:50	61.2	61.2	61.2	87	57.3	0	0	---	0.00	30.010 
05:55	61.2	61.2	61.2	88	57.6	0	0	---	0.00	30.010 
06:00	61.0	61.0	61.0	88	57.4	0	0	---	0.00	30.012 
06:05	60.9	60.9	60.9	88	57.3	0	0	---	0.00	30.012 
06:10	60.7	60.7	60.7	88	57.1	0	0	---	0.00	30.012 
06:15	60.5	60.5	60.5	88	56.9	0	0	---	0.00	30.017 
06:20	60.4	60.4	60.4	89	57.1	0	0	---	0.00	30.017 
06:25	60.4	60.4	60.4	89	57.1	0	0	---	0.00	30.017 
06:30	60.2	60.2	60.2	89	56.9	0	0	---	0.00	30.022 
06:35	60.1	60.1	60.1	89	56.8	0	0	---	0.00	30.022 
06:40	60.1	60.1	60.1	89	56.8	0	0	---	0.00	30.022 
06:45	60.1	60.1	60.1	90	57.2	0	0	---	0.00	30.022 
06:50	60.4	60.4	60.4	91	57.8	0	0	---	0.00	30.022 
06:55	60.5	60.5	60.5	91	57.9	0	0	---	0.00	30.022 
07:00	60.9	60.9	60.9	91	58.3	0	0	---	0.00	30.020 
07:05	61.3	61.3	61.3	89	58.0	0	1	270	0.00	30.020 
07:10	62.0	62.0	62.0	88	58.4	0	0	---	0.00	30.020 
07:15	62.7	62.7	62.7	85	58.1	0	0	---	0.00	30.020 
07:20	63.5	63.5	63.5	83	58.2	0	0	---	0.00	30.020 
07:25	64.5	64.5	64.5	81	58.5	0	1	270	0.00	30.020 
07:30	65.5	65.5	65.5	79	58.8	0	1	270	0.00	30.019 
07:35	66.3	66.3	66.3	77	58.9	0	1	270	0.00	30.019 
07:40	67.1	67.1	67.1	75	58.9	0	2	270	0.00	30.019 
07:45	67.9	67.9	67.9	74	59.3	0	1	270	0.00	30.020 
07:50	68.8	68.8	68.8	70	58.6	0	2	270	0.00	30.020 
07:55	69.8	69.8	69.8	67	58.3	1	3	270	0.00	30.020 
08:00	70.4	70.4	70.4	66	58.5	1	4	248	0.00	30.020 
08:05	71.5	71.5	71.5	64	58.7	0	2	270	0.00	30.020 
08:10	72.1	72.1	72.1	63	58.8	0	2	270	0.00	30.020 
08:15	73.2	73.2	73.2	61	58.9	0	2	248	0.00	30.029 
08:20	73.7	73.7	73.7	58	58.0	0	2	292	0.00	30.029 
08:25	74.4	74.4	74.4	56	57.7	1	4	68	0.00	30.029 
08:30	74.6	74.6	74.6	57	58.3	1	4	68	0.00	30.025 
08:35	74.4	74.4	74.4	57	58.2	2	4	68	0.00	30.025 
08:40	74.7	74.7	74.7	56	57.9	1	3	292	0.00	30.025 
08:45	74.9	74.9	74.9	56	58.1	1	4	292	0.00	30.029 
08:50	75.1	75.1	77.5	57	58.8	1	2	248	0.00	30.029 
08:55	75.4	75.4	77.7	55	58.1	1	3	248	0.00	30.029 
09:00	76.1	76.1	78.1	52	57.2	1	4	90	0.00	30.025 
09:05	76.7	76.7	78.5	54	58.8	1	4	270	0.00	30.025 
09:10	76.7	76.7	78.5	52	57.7	2	5	315	0.00	30.025 
09:15	76.7	76.7	78.5	53	58.3	2	4	68	0.00	30.031 
09:20	76.7	76.7	78.5	53	58.3	2	6	248	0.00	30.031 
09:25	76.8	76.8	78.5	52	57.8	2	5	68	0.00	30.031 
09:30	77.2	77.2	78.8	53	58.7	1	4	248	0.00	30.029 
09:35	77.9	77.9	79.2	51	58.3	1	6	248	0.00	30.029 
09:40	78.1	78.1	79.3	50	57.9	2	6	68	0.00	30.029 
09:45	77.9	77.9	79.1	49	57.2	3	6	270	0.00	30.029 
09:50	78.1	78.1	79.3	49	57.4	2	6	248	0.00	30.029 
09:55	78.6	78.6	79.6	49	57.8	1	4	248	0.00	30.029 
10:00	79.2	79.2	79.8	46	56.6	1	5	45	0.00	30.024 
10:05	79.6	79.6	80.3	48	58.2	1	4	270	0.00	30.024 
10:10	80.1	80.1	80.5	46	57.4	2	6	270	0.00	30.024 
10:15	79.9	79.9	80.2	44	56.0	3	9	248	0.00	30.017 
10:20	79.8	79.8	80.1	44	55.9	3	7	270	0.00	30.017 
10:25	80.1	80.1	80.4	45	56.8	2	5	270	0.00	30.017 
10:30	80.5	80.5	80.8	46	57.8	3	7	270	0.00	30.015 
10:35	80.9	80.9	81.2	46	58.2	2	7	270	0.00	30.015 
10:40	80.9	80.9	81.0	44	56.9	3	6	270	0.00	30.015 
10:45	81.4	81.4	81.3	43	56.7	1	6	90	0.00	30.012 
10:50	82.2	82.2	81.9	42	56.8	2	7	248	0.00	30.012 
10:55	82.2	82.2	81.7	41	56.1	2	6	248	0.00	30.012 
11:00	82.2	82.2	81.6	40	55.4	2	4	248	0.00	30.011 
11:05	82.6	82.6	82.2	42	57.2	2	4	248	0.00	30.011 
11:10	83.2	83.2	82.8	42	57.7	1	4	22	0.00	30.011 
11:15	83.8	83.8	83.4	42	58.2	1	4	270	0.00	30.005 
11:20	84.0	84.0	83.8	43	59.1	1	4	248	0.00	30.005 
11:25	84.3	84.3	83.6	40	57.3	1	4	270	0.00	30.005 
11:30	84.1	84.1	83.9	43	59.2	2	6	248	0.00	30.011 
11:35	84.1	84.1	83.1	38	55.7	2	5	270	0.00	30.011 
11:40	84.3	84.3	83.8	41	58.0	2	5	270	0.00	30.011 
11:45	84.9	84.9	84.0	39	57.1	2	4	90	0.00	30.008 
11:50	84.9	84.9	83.9	38	56.4	2	5	248	0.00	30.008 
11:55	84.7	84.7	83.7	38	56.2	2	4	270	0.00	30.008 
12:00	84.9	84.9	84.0	39	57.1	2	4	248	0.00	30.011 
12:05	85.3	85.3	84.8	41	58.9	1	5	270	0.00	30.011 
12:10	85.3	85.3	83.8	35	54.5	2	5	315	0.00	30.011 
12:15	85.3	85.3	84.5	39	57.5	2	6	248	0.00	30.006 
12:20	85.7	85.7	84.5	37	56.4	1	3	248	0.00	30.006 
12:25	85.9	85.9	84.2	34	54.2	2	6	248	0.00	30.006 
12:30	85.9	85.9	84.9	38	57.3	2	4	248	0.00	29.999 
12:35	86.1	86.1	85.0	37	56.7	2	5	112	0.00	29.999 
12:40	86.5	86.5	85.6	38	57.8	1	5	248	0.00	29.999 
12:45	87.0	87.0	85.2	33	54.4	1	3	248	0.00	29.996 
12:50	87.4	87.4	85.8	34	55.5	2	4	112	0.00	29.996 
12:55	87.4	87.4	85.3	31	53.0	1	5	338	0.00	29.996 
13:00	87.4	87.4	85.6	33	54.7	2	5	112	0.00	29.994 
13:05	87.4	87.4	86.2	36	57.1	2	5	90	0.00	29.994 
13:10	87.8	87.8	86.3	34	55.9	1	3	90	0.00	29.994 
13:15	88.0	88.0	86.3	33	55.2	2	5	270	0.00	29.987 
13:20	88.0	88.0	86.1	32	54.4	2	4	90	0.00	29.987 
13:25	88.2	88.2	86.5	33	55.4	1	4	248	0.00	29.987 
13:30	88.2	88.2	86.5	33	55.4	1	5	248	0.00	29.981 
13:35	88.0	88.0	86.3	33	55.2	2	6	270	0.00	29.981 
13:40	88.4	88.4	87.4	36	58.0	1	5	248	0.00	29.981 
13:45	88.8	88.8	87.2	33	55.9	1	4	248	0.00	29.979 
13:50	89.0	89.0	87.4	33	56.1	1	3	248	0.00	29.979 
13:55	89.0	89.0	87.0	31	54.4	2	4	248	0.00	29.979 
14:00	89.3	89.3	87.6	32	55.5	1	4	90	0.00	29.972 
14:05	89.3	89.3	87.6	32	55.5	1	4	270	0.00	29.972 
14:10	89.3	89.3	87.8	33	56.4	2	4	248	0.00	29.972 
14:15	89.0	89.0	86.8	30	53.5	2	5	248	0.00	29.968 
14:20	89.3	89.3	88.3	35	58.0	1	2	135	0.00	29.968 
14:25	89.3	89.3	87.3	31	54.7	2	4	90	0.00	29.968 
14:30	89.5	89.5	87.6	31	54.8	2	6	135	0.00	29.962 
14:35	89.5	89.5	87.8	32	55.7	2	6	90	0.00	29.962 
14:40	89.7	89.7	89.0	36	59.2	1	4	248	0.00	29.962 
14:45	89.9	89.9	88.3	32	56.0	2	4	292	0.00	29.955 
14:50	89.9	89.9	88.5	33	56.9	2	5	270	0.00	29.955 
14:55	89.9	89.9	87.6	29	53.3	2	6	68	0.00	29.955 
15:00	89.9	89.9	87.6	29	53.3	3	5	90	0.00	29.954 
15:05	89.7	89.7	87.8	31	55.0	2	4	90	0.00	29.954 
15:10	89.7	89.7	87.8	31	55.0	1	5	112	0.00	29.954 
15:15	89.9	89.9	89.6	37	60.1	1	5	90	0.00	29.953 
15:20	89.9	89.9	88.3	32	56.0	2	6	68	0.00	29.953 
15:25	90.1	90.1	88.5	32	56.2	2	6	90	0.00	29.953 
15:30	90.3	90.3	88.5	31	55.5	2	6	90	0.00	29.951 
15:35	90.3	90.3	88.1	29	53.7	3	6	90	0.00	29.951 
15:40	90.1	90.1	87.8	29	53.5	2	7	68	0.00	29.951 
15:45	90.1	90.1	88.3	31	55.3	3	6	90	0.00	29.940 
15:50	90.3	90.3	88.7	32	56.4	2	9	68	0.00	29.940 
15:55	90.5	90.5	88.3	29	53.9	2	4	68	0.00	29.940 
16:00	90.7	90.7	88.5	29	54.0	2	7	45	0.00	29.935 
16:05	90.5	90.5	88.1	28	52.9	3	5	90	0.00	29.935 
16:10	90.3	90.3	88.3	30	54.6	2	5	90	0.00	29.935 
16:15	90.5	90.5	88.5	30	54.8	1	6	90	0.00	29.928 
16:20	90.3	90.3	88.5	31	55.5	2	5	270	0.00	29.928 
16:25	89.9	89.9	87.6	29	53.3	2	5	225	0.00	29.928 
16:30	89.7	89.7	87.2	28	52.2	2	4	68	0.00	29.924 
16:35	89.5	89.5	87.4	30	53.9	2	6	270	0.00	29.924 
16:40	89.3	89.3	87.3	31	54.7	2	5	270	0.00	29.924 
16:45	89.3	89.3	87.3	31	54.7	2	5	90	0.00	29.922 
16:50	89.5	89.5	87.2	29	53.0	2	6	90	0.00	29.922 
16:55	89.5	89.5	87.8	32	55.7	2	6	90	0.00	29.922 
17:00	89.7	89.7	87.6	30	54.1	2	4	90	0.00	29.921 
17:05	89.9	89.9	87.6	29	53.3	2	6	90	0.00	29.921 
17:10	90.1	90.1	88.0	30	54.4	2	5	112	0.00	29.921 
17:15	90.3	90.3	88.7	32	56.4	1	4	338	0.00	29.915 
17:20	90.1	90.1	87.8	29	53.5	3	7	112	0.00	29.915 
17:25	89.7	89.7	87.6	30	54.1	2	9	90	0.00	29.915 
17:30	89.3	89.3	87.1	30	53.8	2	6	90	0.00	29.914 
17:35	89.0	89.0	86.6	29	52.6	2	5	112	0.00	29.914 
17:40	88.8	88.8	86.2	28	51.4	3	9	90	0.00	29.914 
17:45	89.0	89.0	86.6	29	52.6	2	5	90	0.00	29.908 
17:50	89.5	89.5	87.4	30	53.9	2	7	90	0.00	29.908 
17:55	89.7	89.7	87.2	28	52.2	2	5	90	0.00	29.908 
18:00	89.5	89.5	87.2	29	53.0	2	5	90	0.00	29.902 
18:05	89.3	89.3	87.1	30	53.8	1	3	90	0.00	29.902 
18:10	89.0	89.0	86.8	30	53.5	2	4	90	0.00	29.902 
18:15	89.0	89.0	86.8	30	53.5	2	4	112	0.00	29.899 
18:20	88.8	88.8	86.4	29	52.4	2	6	68	0.00	29.899 
18:25	88.8	88.8	86.4	29	52.4	2	7	90	0.00	29.899 
18:30	88.8	88.8	86.8	31	54.2	1	4	90	0.00	29.902 
18:35	88.6	88.6	86.2	29	52.2	2	6	90	0.00	29.902 
18:40	88.6	88.6	86.4	30	53.2	1	4	112	0.00	29.902 
18:45	88.4	88.4	86.0	29	52.1	2	5	90	0.00	29.900 
18:50	88.2	88.2	85.9	30	52.8	3	6	90	0.00	29.900 
18:55	88.0	88.0	85.7	30	52.6	2	6	248	0.00	29.900 
19:00	87.8	87.8	85.7	31	53.4	2	6	90	0.00	29.896 
19:05	87.8	87.8	85.9	32	54.2	2	6	90	0.00	29.896 
19:10	87.8	87.8	86.1	33	55.1	1	6	90	0.00	29.896 
19:15	87.4	87.4	85.6	33	54.7	1	3	270	0.00	29.893 
19:20	87.2	87.2	85.6	34	55.4	1	5	292	0.00	29.893 
19:25	87.0	87.0	85.4	34	55.2	1	2	112	0.00	29.893 
19:30	87.0	87.0	85.4	34	55.2	2	5	90	0.00	29.891 
19:35	87.0	87.0	85.6	35	56.0	1	3	270	0.00	29.891 
19:40	86.7	86.7	84.7	32	53.3	2	6	270	0.00	29.891 
19:45	86.7	86.7	84.7	32	53.3	1	4	270	0.00	29.892 
19:50	86.5	86.5	84.5	32	53.1	1	4	270	0.00	29.892 
19:55	86.5	86.5	84.7	33	53.9	1	5	248	0.00	29.892 
20:00	86.1	86.1	84.3	33	53.6	1	4	135	0.00	29.889 
20:05	85.9	85.9	84.4	35	55.0	1	4	248	0.00	29.889 
20:10	85.7	85.7	84.0	34	54.1	1	4	45	0.00	29.889 
20:15	85.5	85.5	84.0	35	54.7	1	3	270	0.00	29.884 
20:20	85.1	85.1	83.8	36	55.1	0	2	292	0.00	29.884 
20:25	84.9	84.9	83.7	37	55.7	1	3	90	0.00	29.884 
20:30	84.9	84.9	83.6	36	54.9	1	3	90	0.00	29.883 
20:35	84.7	84.7	83.7	38	56.2	1	2	90	0.00	29.883 
20:40	84.3	84.3	83.3	38	55.9	1	4	248	0.00	29.883 
20:45	84.0	84.0	83.3	40	57.0	0	1	248	0.00	29.884 
20:50	83.6	83.6	82.9	40	56.7	0	2	248	0.00	29.884 
20:55	83.4	83.4	82.7	40	56.5	0	4	90	0.00	29.884 
21:00	83.2	83.2	82.7	41	57.0	0	2	90	0.00	29.883 
21:05	82.8	82.8	82.6	43	58.0	0	2	68	0.00	29.883 
21:10	82.4	82.4	82.2	43	57.6	0	1	68	0.00	29.883 
21:15	82.2	82.2	82.0	43	57.4	0	2	315	0.00	29.886 
21:20	81.8	81.8	81.8	44	57.7	0	3	45	0.00	29.886 
21:25	81.8	81.8	81.9	45	58.4	1	3	22	0.00	29.886 
21:30	81.8	81.8	81.9	45	58.4	1	3	202	0.00	29.884 
21:35	81.6	81.6	81.8	46	58.8	1	2	68	0.00	29.884 
21:40	81.4	81.4	81.6	46	58.6	0	3	45	0.00	29.884 
21:45	81.2	81.2	81.5	46	58.4	0	2	45	0.00	29.886 
21:50	81.1	81.1	81.5	47	58.9	0	2	22	0.00	29.886 
21:55	80.9	80.9	81.4	48	59.3	0	1	22	0.00	29.886 
22:00	80.5	80.5	81.2	49	59.6	0	1	22	0.00	29.898 
22:05	80.3	80.3	81.0	49	59.4	1	6	45	0.00	29.898 
22:10	80.3	80.3	81.1	50	59.9	0	3	90	0.00	29.898 
22:15	80.1	80.1	80.9	50	59.8	0	2	90	0.00	29.898 
22:20	79.8	79.8	80.7	51	60.0	0	1	90	0.00	29.898 
22:25	79.6	79.6	80.5	51	59.9	0	3	90	0.00	29.898 
22:30	79.4	79.4	80.5	52	60.2	0	3	68	0.00	29.904 
22:35	79.4	79.4	80.5	52	60.2	0	2	68	0.00	29.904 
22:40	79.2	79.2	80.4	53	60.6	0	2	68	0.00	29.904 
22:45	79.0	79.0	80.2	53	60.4	0	3	68	0.00	29.907 
22:50	78.8	78.8	80.0	53	60.2	0	2	68	0.00	29.907 
22:55	78.8	78.8	80.0	53	60.2	0	2	68	0.00	29.907 
23:00	79.0	79.0	80.2	53	60.4	0	2	68	0.00	29.912 
23:05	78.8	78.8	80.1	54	60.7	0	1	68	0.00	29.912 
23:10	78.8	78.8	80.1	54	60.7	0	2	68	0.00	29.912 
23:15	78.8	78.8	80.1	54	60.7	0	2	68	0.00	29.904 
23:20	78.8	78.8	80.1	54	60.7	1	3	0	0.00	29.904 
23:25	79.2	79.2	80.4	54	61.1	1	9	270	0.00	29.904 
23:30	79.2	79.2	80.4	54	61.1	1	4	90	0.00	29.903 
23:35	79.4	79.4	80.6	54	61.3	1	4	90	0.00	29.903 
23:40	79.4	79.4	80.6	54	61.3	1	4	248	0.00	29.903 
23:45	79.4	79.4	80.7	55	61.8	1	4	270	0.00	29.895 
23:50	79.4	79.4	80.7	55	61.8	1	3	248	0.00	29.895 
23:55	79.2	79.2	80.6	56	62.1	1	3	248	0.00	29.895 

CoCoRaHS
IN-AL-39
A2 Web Hosting
Creative Commons License
GoDaddy
Look for:

loaded 2017-10-19 14:45:58 • last modified 2010-11-18 10:43:29
Privacy PolicyDisclaimer
• wx.awcolley.com is powered by PmWiki v.2002016 •
• all content (unless otherwise noted) © 2017 A W Colley